DW5342 Weather Reports


time (UTC)temp
C
wind
direction
speed
KPH
gust
KPH
rain 1hr
cm
rain 24hr
cm
rain mn
cm
humidity
%
barometer
mb
20240518194529 20 75 4.8 12.9 0.00 0.86 0.86 100 1011.2
20240518193017 21 72 4.8 12.9 0.08 0.86 0.86 100 1011.4
20240518191516 20 61 6.4 16.1 0.08 0.86 0.86 100 1011.6
20240518190017 20 83 6.4 12.9 0.08 0.86 0.86 100 1011.6
20240518184506 20 98 3.2 12.9 0.08 0.86 0.86 100 1011.7
20240518183106 20 73 6.4 12.9 0.00 0.79 0.79 100 1012.0
20240518181556 20 89 6.4 16.1 0.00 0.79 0.79 100 1011.8
20240518180052 20 89 6.4 12.9 0.00 0.79 0.79 100 1011.9
20240518174547 20 85 6.4 14.5 0.00 0.79 0.79 100 1011.8
20240518173044 21 85 6.4 11.3 0.00 0.79 0.79 100 1012.2
20240518171541 21 83 6.4 14.5 0.00 0.79 0.79 100 1012.3
20240518170034 21 99 4.8 12.9 0.00 0.79 0.79 100 1012.6
20240518164531 22 73 1.6 8.0 0.00 0.79 0.79 100 1012.5
20240518163026 21 81 4.8 12.9 0.00 0.79 0.79 100 1012.4
20240518161522 21 108 6.4 14.5 0.00 0.79 0.79 100 1012.6
20240518160021 21 87 8.0 16.1 0.00 0.79 0.79 100 1012.6
20240518154514 20 100 8.0 14.5 0.00 0.79 0.79 100 1012.4
20240518153010 19 100 4.8 11.3 0.00 0.79 0.79 100 1012.6
20240518151505 19 116 14.5 22.5 0.00 0.79 0.79 100 1012.5
20240518150100 18 122 11.3 20.9 0.00 0.79 0.79 100 1012.7
20240518144555 18 97 6.4 16.1 0.03 0.79 0.79 100 1012.6
20240518143051 18 122 11.3 17.7 0.03 0.79 0.79 100 1012.6
20240518141547 17 118 4.8 12.9 0.03 0.79 0.79 100 1012.7
20240518140051 17 121 8.0 14.5 0.03 0.79 0.79 100 1013.1
20240518134558 17 106 9.7 16.1 0.00 0.76 0.76 100 1013.1
20240518133039 16 129 11.3 20.9 0.00 0.76 0.76 100 1013.2
20240518131537 16 127 11.3 20.9 0.00 0.76 0.76 100 1013.6
20240518130026 16 99 11.3 17.7 0.00 0.76 0.76 100 1013.7
20240518124521 16 111 11.3 16.1 0.13 0.76 0.76 100 1013.7
20240518123017 15 106 4.8 11.3 0.20 0.76 0.76 100 1014.0
20240518121528 15 106 4.8 11.3 0.20 0.76 0.76 100 1013.9
20240518120009 15 120 4.8 12.9 0.20 0.76 0.76 100 1014.2
20240518114503 15 124 6.4 12.9 0.23 0.64 0.64 100 1013.9
20240518113118 15 135 3.2 6.4 0.23 0.56 0.56 100 1014.0
20240518111555 15 144 0.0 3.2 0.36 0.56 0.56 100 1013.9
20240518110050 15 107 3.2 11.3 0.51 0.56 0.56 100 1013.5
20240518104547 15 127 16.1 24.1 0.38 0.41 0.41 100 1012.4
20240518103042 15 104 11.3 22.5 0.33 0.33 0.33 100 1012.4
20240518101536 15 95 12.9 17.7 0.20 0.20 0.20 100 1012.8
20240518100032 15 64 9.7 16.1 0.05 0.05 0.05 100 1012.5
20240518094534 15 104 12.9 17.7 0.00 0.00 0.00 100 1012.5
20240518093025 15 104 14.5 20.9 0.00 0.00 0.00 100 1012.5
20240518091530 15 105 11.3 17.7 0.00 0.00 0.00 100 1012.5
20240518090022 15 98 12.9 16.1 0.00 0.00 0.00 100 1012.4
20240518084510 15 103 3.2 11.3 0.00 0.00 0.00 100 1012.6
20240518083012 15 123 4.8 9.7 0.00 0.00 0.00 100 1012.6
20240518081502 15 86 6.4 11.3 0.00 0.00 0.00 100 1012.5
20240518080057 15 79 3.2 11.3 0.00 0.00 0.00 100 1012.8
20240518074554 15 110 3.2 11.3 0.00 0.00 0.00 100 1012.9
20240518073048 15 85 3.2 8.0 0.00 0.00 0.00 100 1013.1
20240518071557 15 94 4.8 8.0 0.00 0.00 0.00 100 1013.2
20240518070042 15 89 3.2 6.4 0.00 0.00 0.00 100 1013.4
20240518064539 15 95 0.0 6.4 0.00 0.00 0.00 100 1013.6
20240518063031 15 152 0.0 0.0 0.00 0.00 0.00 100 1013.6
20240518061527 15 152 0.0 0.0 0.00 0.00 0.00 100 1013.9
20240518060029 15 152 3.2 6.4 0.00 0.00 0.00 100 1014.2
20240518054518 15 152 0.0 3.2 0.00 0.00 0.00 100 1014.5
20240518053021 15 152 0.0 0.0 0.00 0.00 0.00 100 1014.4
20240518051510 15 152 0.0 0.0 0.00 0.00 0.00 100 1014.4
20240518050005 16 152 0.0 1.6 0.00 0.00 0.00 100 1014.3
20240518044500 16 152 0.0 3.2 0.00 0.00 0.00 100 1014.3
20240518043057 16 140 0.0 4.8 0.00 0.00 0.00 100 1014.3
20240518041552 16 104 1.6 4.8 0.00 0.00 0.00 100 1014.4
20240518040048 16 104 1.6 4.8 0.00 0.00 0.00 100 1014.6
20240518034547 16 110 0.0 11.3 0.00 0.00 0.00 100 1014.7
20240518033052 16 103 4.8 8.0 0.00 0.00 0.00 100 1014.6
20240518031535 16 85 1.6 8.0 0.00 0.00 0.00 100 1014.7
20240518030031 16 85 3.2 6.4 0.00 0.00 0.00 100 1014.7
20240518024526 16 87 4.8 11.3 0.00 0.00 0.00 100 1014.5
20240518023032 16 116 4.8 12.9 0.00 0.00 0.00 100 1014.6
20240518021518 16 82 6.4 16.1 0.00 0.00 0.00 100 1014.3
20240518020012 16 101 4.8 16.1 0.00 0.00 0.00 100 1014.5
20240518014508 16 98 4.8 11.3 0.00 0.00 0.00 100 1014.5
20240518013006 16 100 6.4 12.9 0.00 0.00 0.00 100 1014.2
20240518011604 17 102 3.2 11.3 0.00 0.00 0.00 100 1014.2
20240518010055 17 91 4.8 12.9 0.00 0.00 0.00 100 1014.1
20240518004559 17 113 8.0 11.3 0.00 0.00 0.00 100 1014.1
20240518003103 17 100 4.8 8.0 0.00 0.00 0.00 100 1014.1
20240518001600 17 105 4.8 11.3 0.00 0.00 0.00 100 1014.0
20240518000038 17 109 6.4 11.3 0.00 0.00 0.00 100 1014.0
20240517234605 18 77 4.8 12.9 0.00 0.00 0.00 100 1014.0
20240517233029 18 87 3.2 8.0 0.00 0.00 0.00 100 1014.0
20240517231532 18 68 3.2 12.9 0.00 0.00 0.00 100 1013.7
20240517230035 18 98 6.4 12.9 0.00 0.00 0.00 100 1013.6
20240517224516 18 96 9.7 17.7 0.00 0.00 0.00 100 1013.5
20240517223018 18 78 6.4 16.1 0.00 0.00 0.00 100 1013.4
20240517221508 18 100 6.4 16.1 0.00 0.00 0.00 100 1013.1
20240517220004 18 79 6.4 17.7 0.00 0.00 0.00 100 1013.2
20240517214602 18 104 9.7 19.3 0.00 0.00 0.00 100 1013.1
20240517213055 19 77 8.0 17.7 0.00 0.00 0.00 100 1013.0
20240517211559 19 83 8.0 20.9 0.00 0.00 0.00 100 1013.1
20240517210046 20 108 9.7 19.3 0.00 0.00 0.00 100 1013.2
20240517204541 21 97 12.9 17.7 0.00 0.00 0.00 100 1013.5
20240517203037 22 59 0.0 6.4 0.00 0.00 0.00 100 1013.5
20240517201541 22 60 1.6 11.3 0.00 0.00 0.00 100 1013.1
20240517200028 22 107 1.6 11.3 0.00 0.00 0.00 100 1013.3